MMVR/VER METAR and TAF weather

Enter ICAO airport designator
Station Type Date Time Source
MMVR METAR 2019/08/22 19:44 UTC NOAA

MMVR 221944Z 11005KT 7SM FEW250 31/24 A2985 RMK 8/001 HZY DSNT TCU AND CB W


Station Type Date Time Source
MMVR Decoded METAR 2019/08/22 19:44 UTC NOAA

Station name not available
Aug 22, 2019 - 03:44 PM EDT / 2019.08.22 1944 UTC
Wind: from the ESE (110 degrees) at 6 MPH (5 KT):0
Visibility: 7 mile(s):0
Sky conditions: mostly clear
Weather: Cumulonimbus clouds, towering cumulus clouds observed
Temperature: 87 F (31 C)
Heat index: 95.7 F (35.4 C):1
Dew Point: 75 F (24 C)
Relative Humidity: 66%
Pressure (altimeter): 29.85 in. Hg (1010 hPa)
ob: MMVR 221944Z 11005KT 7SM FEW250 31/24 A2985 RMK 8/001 HZY DSNT TCU AND CB W
cycle: 19

Station Type Date Time Source
MMVR TAF 2019/08/22 18:49 UTC NOAA

TAF MMVR 221645Z 2218/2318 12008KT P6SM SCT020 BKN080 TX31/2220Z TN25/2312Z
FM230500 00000KT 6SM HZ SCT012 BKN090

Example: see airport list